Terminal Aerodrome Forecast
Issued by NWS

Home | Current Version | Previous Version | Text Only | Print | Product List | Glossary On
Versions: 1 2 3 4 5 6 7 8 9 10 11 12 13 14 15 16 17 18 19 20 21 22 23 24 25 26 27 28 29 30
000
FTUS42 KCAE 291738
TAFCUB
TAF
KCUB 291738Z 2918/3018 13006KT P6SM SCT080
     FM292300 VRB03KT P6SM SCT250
     FM301100 08002KT 5SM BR BKN010
     FM301400 12003KT P6SM SCT050=

USA.gov is the U.S. government's official web portal to all federal, state and local government web resources and services.